createdAt,value
2019-01-26T00:00:10.919Z,58.73
2019-01-26T00:02:41.088Z,59.40
2019-01-26T00:05:09.732Z,62.27
2019-01-26T00:07:36.789Z,64.83
2019-01-26T00:10:05.252Z,60.47
2019-01-26T00:12:32.308Z,61.47
2019-01-26T00:14:59.404Z,64.30
2019-01-26T00:17:26.468Z,64.73
2019-01-26T00:19:53.576Z,58.90
2019-01-26T00:22:20.616Z,64.17
2019-01-26T00:24:47.681Z,68.57
2019-01-26T00:27:14.862Z,63.47
2019-01-26T00:29:41.895Z,64.23
2019-01-26T00:33:13.059Z,64.70
2019-01-26T00:35:40.107Z,65.20
2019-01-26T00:38:07.159Z,68.03
2019-01-26T00:40:34.265Z,64.63
2019-01-26T00:43:01.336Z,68.67
2019-01-26T00:45:28.549Z,64.93
2019-01-26T00:48:01.822Z,69.23
2019-01-26T00:50:28.895Z,66.40
2019-01-26T00:52:55.996Z,66.80
2019-01-26T00:55:23.059Z,68.90
2019-01-26T00:57:50.096Z,70.20
2019-01-26T01:00:17.479Z,71.90
2019-01-26T01:02:44.531Z,68.03
2019-01-26T01:05:12.209Z,71.23
2019-01-26T01:07:39.402Z,72.20
2019-01-26T01:10:08.515Z,74.07
2019-01-26T01:12:35.569Z,71.77
2019-01-26T01:15:03.423Z,74.70
2019-01-26T01:17:30.956Z,74.07
2019-01-26T01:19:57.988Z,73.23
2019-01-26T01:22:25.171Z,70.40
2019-01-26T01:24:52.194Z,73.97
2019-01-26T01:27:21.478Z,75.03
2019-01-26T01:29:48.557Z,73.67
2019-01-26T01:32:15.654Z,75.63
2019-01-26T01:34:42.744Z,77.40
2019-01-26T01:37:09.784Z,73.00
2019-01-26T01:39:36.837Z,70.33
2019-01-26T01:42:03.950Z,76.80
2019-01-26T01:44:31.063Z,72.97
2019-01-26T01:46:58.211Z,77.93
2019-01-26T01:49:25.242Z,74.07
2019-01-26T01:51:52.294Z,74.87
2019-01-26T01:54:19.368Z,76.57
2019-01-26T01:56:46.426Z,75.40
2019-01-26T01:59:13.471Z,76.17
2019-01-26T02:01:40.759Z,75.10
2019-01-26T02:04:07.906Z,73.53
2019-01-26T02:06:34.943Z,76.40
2019-01-26T02:09:01.996Z,77.77
2019-01-26T02:11:29.081Z,73.77
2019-01-26T02:13:56.108Z,74.10
2019-01-26T02:16:23.134Z,77.07
2019-01-26T02:18:50.205Z,72.10
2019-01-26T02:21:17.243Z,74.67
2019-01-26T02:23:44.307Z,75.20
2019-01-26T02:26:11.449Z,77.03
2019-01-26T02:28:38.503Z,77.20
2019-01-26T02:31:05.539Z,75.13
2019-01-26T02:33:32.721Z,78.07
2019-01-26T02:35:59.758Z,74.83
2019-01-26T02:38:26.802Z,76.87
2019-01-26T02:40:53.861Z,76.90
2019-01-26T02:43:23.711Z,78.17
2019-01-26T02:45:50.748Z,79.33
2019-01-26T02:48:17.805Z,77.90
2019-01-26T02:50:44.848Z,80.37
2019-01-26T02:53:11.881Z,75.60
2019-01-26T02:55:38.938Z,73.70
2019-01-26T02:58:06.230Z,77.53
2019-01-26T03:00:33.294Z,76.70
2019-01-26T03:03:00.370Z,74.43
2019-01-26T03:05:27.443Z,74.93
2019-01-26T03:07:54.529Z,77.07
2019-01-26T03:10:22.303Z,72.07
2019-01-26T03:12:49.366Z,68.80
2019-01-26T03:15:18.544Z,73.20
2019-01-26T03:17:47.492Z,77.27
2019-01-26T03:20:14.911Z,67.07
2019-01-26T03:22:42.004Z,74.63
2019-01-26T03:25:09.953Z,74.20
2019-01-26T03:27:38.131Z,74.83
2019-01-26T03:30:08.910Z,65.90
2019-01-26T03:32:36.113Z,70.63
2019-01-26T03:35:03.988Z,69.33
2019-01-26T03:37:31.055Z,69.37
2019-01-26T03:39:58.088Z,72.27
2019-01-26T03:42:25.226Z,67.70
2019-01-26T03:44:52.321Z,66.17
2019-01-26T03:47:19.392Z,68.07
2019-01-26T03:49:46.577Z,69.10
2019-01-26T03:52:13.679Z,69.63
2019-01-26T03:54:40.758Z,66.87
2019-01-26T03:57:07.792Z,70.33
2019-01-26T03:59:35.022Z,69.23
2019-01-26T04:02:02.108Z,69.93
2019-01-26T04:04:29.337Z,74.33
2019-01-26T04:06:56.367Z,76.33
2019-01-26T04:09:41.926Z,71.27
2019-01-26T04:12:09.027Z,75.87
2019-01-26T04:14:36.060Z,75.60
2019-01-26T04:17:03.137Z,75.37
2019-01-26T04:19:30.175Z,79.53
2019-01-26T04:21:57.210Z,75.60
2019-01-26T04:24:24.285Z,75.77
2019-01-26T04:26:51.306Z,81.70
2019-01-26T04:29:18.375Z,79.73
2019-01-26T04:31:45.438Z,76.87
2019-01-26T04:34:12.489Z,80.33
2019-01-26T04:36:39.528Z,79.87
2019-01-26T04:39:07.647Z,71.53
2019-01-26T04:41:34.722Z,75.77
2019-01-26T04:44:02.481Z,74.43
2019-01-26T04:46:29.552Z,76.17
2019-01-26T04:48:56.607Z,77.50
2019-01-26T04:51:23.657Z,71.50
2019-01-26T04:53:50.707Z,75.10
2019-01-26T04:56:17.846Z,72.00
2019-01-26T04:58:44.909Z,72.83
2019-01-26T05:01:11.952Z,71.20
2019-01-26T05:03:39.141Z,72.87
2019-01-26T05:06:06.324Z,69.83
2019-01-26T05:08:33.368Z,74.23
2019-01-26T05:11:00.445Z,70.83
2019-01-26T05:13:27.483Z,71.63
2019-01-26T05:15:54.519Z,70.73
2019-01-26T05:18:21.564Z,68.80
2019-01-26T05:20:48.597Z,69.00
2019-01-26T05:23:15.671Z,68.30
2019-01-26T05:25:42.716Z,66.27
2019-01-26T05:28:09.758Z,66.63
2019-01-26T05:30:36.967Z,64.67
2019-01-26T05:33:04.107Z,58.83
2019-01-26T05:35:31.133Z,63.67
2019-01-26T05:37:58.261Z,61.60
2019-01-26T05:40:25.313Z,59.70
2019-01-26T05:42:52.447Z,60.17
2019-01-26T05:45:20.784Z,63.30
2019-01-26T05:47:49.618Z,58.63
2019-01-26T05:50:24.587Z,57.03
2019-01-26T05:52:52.132Z,57.77
2019-01-26T05:55:19.179Z,54.50
2019-01-26T05:57:46.262Z,55.23
2019-01-26T06:00:22.025Z,57.17
2019-01-26T06:03:00.511Z,56.67
2019-01-26T06:05:27.569Z,54.97
2019-01-26T06:07:54.617Z,56.47
2019-01-26T06:10:22.018Z,52.97
2019-01-26T06:12:49.029Z,53.67
2019-01-26T06:15:17.861Z,51.40
2019-01-26T06:17:44.926Z,52.00
2019-01-26T06:20:12.178Z,54.90
2019-01-26T06:22:39.333Z,53.30
2019-01-26T06:25:08.094Z,50.07
2019-01-26T06:27:35.107Z,49.57
2019-01-26T06:30:02.530Z,50.23
2019-01-26T06:32:29.661Z,49.53
2019-01-26T06:34:58.152Z,48.73
2019-01-26T06:37:25.190Z,51.83
2019-01-26T06:39:52.280Z,49.27
2019-01-26T06:42:19.352Z,51.07
2019-01-26T06:44:46.462Z,47.87
2019-01-26T06:47:13.541Z,46.13
2019-01-26T06:49:40.579Z,42.93
2019-01-26T06:52:07.666Z,44.73
2019-01-26T06:54:34.779Z,43.27
2019-01-26T06:57:01.925Z,42.87
2019-01-26T06:59:28.987Z,43.33
2019-01-26T07:01:56.056Z,42.37
2019-01-26T07:04:31.743Z,41.63
2019-01-26T07:07:05.823Z,40.23
2019-01-26T07:09:32.867Z,43.43
2019-01-26T07:11:59.909Z,42.77
2019-01-26T07:14:27.009Z,40.13
2019-01-26T07:16:54.154Z,43.37
2019-01-26T07:19:21.221Z,40.70
2019-01-26T07:21:48.343Z,44.73
2019-01-26T07:24:15.396Z,41.93
2019-01-26T07:26:42.444Z,41.37
2019-01-26T07:29:09.548Z,40.63
2019-01-26T07:31:37.022Z,42.00
2019-01-26T07:34:04.070Z,43.63
2019-01-26T07:36:31.155Z,43.83
2019-01-26T07:38:58.211Z,43.03
2019-01-26T07:41:25.245Z,44.37
2019-01-26T07:43:52.292Z,42.70
2019-01-26T07:46:19.463Z,41.50
2019-01-26T07:48:46.566Z,41.67
2019-01-26T07:51:13.624Z,45.00
2019-01-26T07:53:41.827Z,47.50
2019-01-26T07:56:09.112Z,48.80
2019-01-26T07:58:36.163Z,49.63
2019-01-26T08:01:03.412Z,45.13
2019-01-26T08:03:30.609Z,48.83
2019-01-26T08:05:57.672Z,47.13
2019-01-26T08:08:24.726Z,47.57
2019-01-26T08:10:51.801Z,50.97
2019-01-26T08:13:18.855Z,51.43
2019-01-26T08:15:45.897Z,51.67
2019-01-26T08:18:12.992Z,50.57
2019-01-26T08:20:40.062Z,50.47
2019-01-26T08:23:07.205Z,50.27
2019-01-26T08:25:34.399Z,53.10
2019-01-26T08:28:01.558Z,49.63
2019-01-26T08:30:31.381Z,52.40
2019-01-26T08:32:58.510Z,52.80
2019-01-26T08:35:26.674Z,53.83
2019-01-26T08:37:53.704Z,51.33
2019-01-26T08:40:21.220Z,50.50
2019-01-26T08:42:48.488Z,51.23
2019-01-26T08:45:15.575Z,52.37
2019-01-26T08:47:42.839Z,52.63
2019-01-26T08:50:12.699Z,53.23
2019-01-26T08:52:39.819Z,52.77
2019-01-26T08:55:08.026Z,51.10
2019-01-26T08:57:35.198Z,49.47
2019-01-26T09:00:02.706Z,50.27
2019-01-26T09:03:04.480Z,47.80
2019-01-26T09:05:34.578Z,52.30
2019-01-26T09:08:01.676Z,50.23
2019-01-26T09:10:28.867Z,51.67
2019-01-26T09:12:56.315Z,47.10
2019-01-26T09:15:23.572Z,50.60
2019-01-26T09:17:50.981Z,47.43
2019-01-26T09:20:56.360Z,47.27
2019-01-26T09:23:23.453Z,47.43
2019-01-26T09:25:50.492Z,47.00
2019-01-26T09:28:17.771Z,46.50
2019-01-26T09:30:44.875Z,45.23
2019-01-26T09:33:11.911Z,47.73
2019-01-26T09:35:38.967Z,45.20
2019-01-26T09:38:06.176Z,44.40
2019-01-26T09:40:33.309Z,46.33
2019-01-26T09:43:00.501Z,42.23
2019-01-26T09:45:27.579Z,45.43
2019-01-26T09:47:54.689Z,45.13
2019-01-26T09:50:22.044Z,46.03
2019-01-26T09:52:49.188Z,43.07
2019-01-26T09:55:16.273Z,41.23
2019-01-26T09:57:44.646Z,43.50
2019-01-26T10:00:14.466Z,42.00
2019-01-26T10:02:41.534Z,41.00
2019-01-26T10:05:08.700Z,39.87
2019-01-26T10:07:35.919Z,38.47
2019-01-26T10:10:04.019Z,38.97
2019-01-26T10:12:31.106Z,37.73
2019-01-26T10:14:58.212Z,38.00
2019-01-26T10:17:25.360Z,34.87
2019-01-26T10:24:01.553Z,35.57
2019-01-26T10:26:34.714Z,36.57
2019-01-26T10:29:01.879Z,35.80
2019-01-26T10:31:28.977Z,34.23
2019-01-26T10:33:56.026Z,35.13
2019-01-26T10:36:27.795Z,36.17
2019-01-26T10:39:05.279Z,37.43
2019-01-26T10:41:51.406Z,35.10
2019-01-26T10:44:24.732Z,35.90
2019-01-26T10:46:51.850Z,35.40
2019-01-26T10:49:18.916Z,34.13
2019-01-26T10:51:46.031Z,33.00
2019-01-26T10:54:13.203Z,35.83
2019-01-26T10:56:40.285Z,33.83
2019-01-26T10:59:07.396Z,31.13
2019-01-26T11:01:34.556Z,33.80
2019-01-26T11:04:01.786Z,32.47
2019-01-26T11:06:29.099Z,31.23
2019-01-26T11:08:56.288Z,31.37
2019-01-26T11:11:23.330Z,30.00
2019-01-26T11:13:50.435Z,30.40
2019-01-26T11:16:17.636Z,31.53
2019-01-26T11:18:44.751Z,29.70
2019-01-26T11:21:11.929Z,30.50
2019-01-26T11:23:39.031Z,32.17
2019-01-26T11:26:06.164Z,30.57
2019-01-26T11:28:33.221Z,29.80
2019-01-26T11:31:00.556Z,31.53
2019-01-26T11:33:28.016Z,28.87
2019-01-26T11:35:55.095Z,30.17
2019-01-26T11:38:22.162Z,28.97
2019-01-26T11:40:49.270Z,28.57
2019-01-26T11:43:16.334Z,28.37
2019-01-26T11:45:52.688Z,30.00
2019-01-26T11:48:22.927Z,26.17
2019-01-26T11:50:54.534Z,29.13
2019-01-26T11:53:21.592Z,28.90
2019-01-26T11:55:53.875Z,26.80
2019-01-26T11:58:20.966Z,26.50
2019-01-26T12:01:06.248Z,24.20
2019-01-26T12:03:52.913Z,24.53
2019-01-26T12:06:42.560Z,24.53
2019-01-26T12:09:09.761Z,23.40
2019-01-26T12:11:36.863Z,22.93
2019-01-26T12:14:04.443Z,22.90
2019-01-26T12:16:31.527Z,21.83
2019-01-26T12:18:58.576Z,21.93
2019-01-26T12:21:25.636Z,23.40
2019-01-26T12:23:52.842Z,21.83
2019-01-26T12:26:19.902Z,23.83
2019-01-26T12:28:46.951Z,23.03
2019-01-26T12:31:14.061Z,22.80
2019-01-26T12:33:41.127Z,21.73
2019-01-26T12:36:08.158Z,23.87
2019-01-26T12:38:35.248Z,24.47
2019-01-26T12:41:02.271Z,26.43
2019-01-26T12:43:29.343Z,24.93
2019-01-26T12:45:56.458Z,22.77
2019-01-26T12:48:23.526Z,23.67
2019-01-26T12:50:50.623Z,22.43
2019-01-26T12:53:17.778Z,22.87
2019-01-26T12:55:44.869Z,21.50
2019-01-26T12:58:12.089Z,22.13
2019-01-26T13:00:39.228Z,20.23
2019-01-26T13:03:06.344Z,19.67
2019-01-26T13:05:33.395Z,18.33
2019-01-26T13:08:00.502Z,19.47
2019-01-26T13:10:31.179Z,16.97
2019-01-26T13:12:58.212Z,16.77
2019-01-26T13:15:25.310Z,16.10
2019-01-26T13:17:52.380Z,15.47
2019-01-26T13:20:19.545Z,16.50
2019-01-26T13:22:46.652Z,16.90
2019-01-26T13:25:14.670Z,16.37
2019-01-26T13:27:41.729Z,14.40
2019-01-26T13:30:12.737Z,15.47
2019-01-26T13:32:39.779Z,14.80
2019-01-26T13:35:07.460Z,13.97
2019-01-26T13:37:34.546Z,13.23
2019-01-26T13:40:01.598Z,13.57
2019-01-26T13:42:28.649Z,12.77
2019-01-26T13:44:55.749Z,13.73
2019-01-26T13:47:22.928Z,13.17
2019-01-26T13:49:50.011Z,13.17
2019-01-26T13:52:17.054Z,13.67
2019-01-26T13:54:44.247Z,12.20
2019-01-26T13:57:16.150Z,13.43
2019-01-26T13:59:43.216Z,14.73
2019-01-26T14:02:10.362Z,13.93
2019-01-26T14:04:38.779Z,14.67
2019-01-26T14:07:05.858Z,14.40
2019-01-26T14:09:32.977Z,15.50
2019-01-26T14:12:00.066Z,15.77
2019-01-26T14:14:27.101Z,16.80
2019-01-26T14:16:54.190Z,16.63
2019-01-26T14:19:21.281Z,13.40
2019-01-26T14:21:48.363Z,14.80
2019-01-26T14:24:15.429Z,12.90
2019-01-26T14:26:42.488Z,13.13
2019-01-26T14:29:09.535Z,12.80
2019-01-26T14:31:36.625Z,12.17
2019-01-26T14:34:03.854Z,11.50
2019-01-26T14:36:30.890Z,10.87
2019-01-26T14:38:57.960Z,11.50
2019-01-26T14:41:25.081Z,10.93
2019-01-26T14:43:52.137Z,10.43
2019-01-26T14:46:19.312Z,10.23
2019-01-26T14:48:46.420Z,10.63
2019-01-26T14:51:13.543Z,9.63
2019-01-26T14:53:47.482Z,8.83
2019-01-26T14:56:09.596Z,8.60
2019-01-26T14:58:36.666Z,8.93
2019-01-26T15:01:04.152Z,8.70
2019-01-26T15:03:31.292Z,9.10
2019-01-26T15:05:58.357Z,8.93
2019-01-26T15:08:25.467Z,10.73
2019-01-26T15:10:52.561Z,9.93
2019-01-26T15:13:19.636Z,9.70
2019-01-26T15:15:46.675Z,9.90
2019-01-26T15:18:13.775Z,10.27
2019-01-26T15:20:40.840Z,10.20
2019-01-26T15:23:08.138Z,10.90
2019-01-26T15:25:35.425Z,11.50
2019-01-26T15:28:02.511Z,10.57
2019-01-26T15:30:31.877Z,11.43
2019-01-26T15:32:59.129Z,10.67
2019-01-26T15:35:27.225Z,10.97
2019-01-26T15:37:54.264Z,11.60
2019-01-26T15:40:21.364Z,11.20
2019-01-26T15:42:48.477Z,10.67
2019-01-26T15:45:18.551Z,9.43
2019-01-26T15:47:45.733Z,10.07
2019-01-26T15:50:13.423Z,9.97
2019-01-26T15:52:40.462Z,9.30
2019-01-26T15:55:10.426Z,9.80
2019-01-26T15:57:38.695Z,9.90
2019-01-26T16:00:09.042Z,10.60
2019-01-26T16:02:36.163Z,11.00
2019-01-26T16:05:04.351Z,11.30
2019-01-26T16:07:31.459Z,11.53
2019-01-26T16:09:58.537Z,11.60
2019-01-26T16:12:26.633Z,11.53
2019-01-26T16:14:53.697Z,11.53
2019-01-26T16:17:20.798Z,11.27
2019-01-26T16:19:47.859Z,12.87
2019-01-26T16:22:14.954Z,14.57
2019-01-26T16:24:42.031Z,12.97
2019-01-26T16:27:09.084Z,12.17
2019-01-26T16:29:38.415Z,13.13
2019-01-26T16:32:05.510Z,13.40
2019-01-26T16:34:32.559Z,14.10
2019-01-26T16:36:59.653Z,13.93
2019-01-26T16:39:26.756Z,12.80
2019-01-26T16:41:53.949Z,13.40
2019-01-26T16:44:20.933Z,14.23
2019-01-26T16:46:48.051Z,13.13
2019-01-26T16:49:15.167Z,13.17
2019-01-26T16:52:00.754Z,12.90
2019-01-26T16:54:27.863Z,14.03
2019-01-26T16:56:54.952Z,12.57
2019-01-26T16:59:22.106Z,13.93
2019-01-26T17:01:49.244Z,13.93
2019-01-26T17:04:16.289Z,16.53
2019-01-26T17:06:43.389Z,14.47
2019-01-26T17:09:10.434Z,13.57
2019-01-26T17:11:37.553Z,13.57
2019-01-26T17:14:04.726Z,12.63
2019-01-26T17:16:31.819Z,12.77
2019-01-26T17:18:58.890Z,13.83
2019-01-26T17:21:26.001Z,12.57
2019-01-26T17:23:53.099Z,12.77
2019-01-26T17:26:20.156Z,13.60
2019-01-26T17:28:47.197Z,13.50
2019-01-26T17:31:14.294Z,14.43
2019-01-26T17:33:41.361Z,12.87
2019-01-26T17:36:08.510Z,13.07
2019-01-26T17:38:35.592Z,13.83
2019-01-26T17:41:02.678Z,12.37
2019-01-26T17:43:29.762Z,12.70
2019-01-26T17:45:56.839Z,12.27
2019-01-26T17:48:24.011Z,12.87
2019-01-26T17:50:51.131Z,13.63
2019-01-26T17:53:18.229Z,13.33
2019-01-26T17:55:46.337Z,13.20
2019-01-26T17:58:13.512Z,13.67
2019-01-26T18:07:45.374Z,13.50
2019-01-26T18:10:15.808Z,12.27
2019-01-26T18:12:43.006Z,12.87
2019-01-26T18:15:12.063Z,13.63
2019-01-26T18:17:39.324Z,13.93
2019-01-26T18:20:09.227Z,13.50
2019-01-26T18:22:36.511Z,13.17
2019-01-26T18:25:04.480Z,13.47
2019-01-26T18:27:32.432Z,13.73
2019-01-26T18:29:59.516Z,12.50
2019-01-26T18:32:26.653Z,11.87
2019-01-26T18:34:53.884Z,12.37
2019-01-26T18:37:21.034Z,13.00
2019-01-26T18:43:21.569Z,11.47
2019-01-26T18:45:48.742Z,11.43
2019-01-26T18:48:16.400Z,10.93
2019-01-26T18:50:45.677Z,10.80
2019-01-26T18:53:14.355Z,9.87
2019-01-26T18:55:41.423Z,9.27
2019-01-26T18:58:08.543Z,9.20
2019-01-26T19:00:38.654Z,9.13
2019-01-26T19:03:18.805Z,9.03
2019-01-26T19:05:45.897Z,8.83
2019-01-26T19:08:12.924Z,9.30
2019-01-26T19:10:40.021Z,7.50
2019-01-26T19:13:07.072Z,8.67
2019-01-26T19:15:34.109Z,8.27
2019-01-26T19:18:01.217Z,8.27
2019-01-26T19:20:28.407Z,6.93
2019-01-26T19:22:55.481Z,7.50
2019-01-26T19:25:22.586Z,6.80
2019-01-26T19:27:49.676Z,6.60
2019-01-26T19:30:18.383Z,7.33
2019-01-26T19:32:45.588Z,6.63
2019-01-26T19:35:12.979Z,7.20
2019-01-26T19:37:40.029Z,6.60
2019-01-26T19:40:11.067Z,6.80
2019-01-26T19:42:38.148Z,6.17
2019-01-26T19:45:07.839Z,6.83
2019-01-26T19:47:35.062Z,6.63
2019-01-26T19:50:02.362Z,5.80
2019-01-26T19:52:29.386Z,7.00
2019-01-26T19:54:56.561Z,7.23
2019-01-26T19:57:25.407Z,7.83
2019-01-26T19:59:53.562Z,7.53
2019-01-26T20:02:20.735Z,6.70
2019-01-26T20:04:49.412Z,7.80
2019-01-26T20:07:16.483Z,6.60
2019-01-26T20:09:43.554Z,8.03
2019-01-26T20:12:10.717Z,7.10
2019-01-26T20:14:37.740Z,6.67
2019-01-26T20:17:06.006Z,7.03
2019-01-26T20:19:33.094Z,7.90
2019-01-26T20:22:00.170Z,6.90
2019-01-26T20:24:27.237Z,7.20
2019-01-26T20:26:55.433Z,6.80
2019-01-26T20:29:22.533Z,7.80
2019-01-26T20:31:49.578Z,7.47
2019-01-26T20:34:16.643Z,8.07
2019-01-26T20:36:43.715Z,8.17
2019-01-26T20:39:10.786Z,8.07
2019-01-26T20:41:37.954Z,7.73
2019-01-26T20:44:05.154Z,7.53
2019-01-26T20:46:32.215Z,7.90
2019-01-26T20:48:59.308Z,8.07
2019-01-26T20:51:26.413Z,8.07
2019-01-26T20:53:53.492Z,7.37
2019-01-26T20:56:26.660Z,7.97
2019-01-26T21:02:45.308Z,7.07
2019-01-26T21:05:12.366Z,7.20
2019-01-26T21:07:39.446Z,7.67
2019-01-26T21:10:10.675Z,7.77
2019-01-26T21:12:37.759Z,7.67
2019-01-26T21:15:05.704Z,7.33
2019-01-26T21:17:32.836Z,6.20
2019-01-26T21:19:59.879Z,6.90
2019-01-26T21:22:27.053Z,7.83
2019-01-26T21:24:54.155Z,7.87
2019-01-26T21:27:27.222Z,8.20
2019-01-26T21:29:54.283Z,7.70
2019-01-26T21:32:21.394Z,7.80
2019-01-26T21:34:48.458Z,7.23
2019-01-26T21:37:15.522Z,7.30
2019-01-26T21:39:42.631Z,6.77
2019-01-26T21:42:09.759Z,6.37
2019-01-26T21:44:36.928Z,5.60
2019-01-26T21:47:04.053Z,5.57
2019-01-26T21:49:31.142Z,5.93
2019-01-26T21:54:52.084Z,5.27
2019-01-26T21:57:19.164Z,5.30
2019-01-26T21:59:46.387Z,5.23
2019-01-26T22:02:13.794Z,5.67
2019-01-26T22:04:40.926Z,5.70
2019-01-26T22:08:03.615Z,5.43
2019-01-26T22:10:30.767Z,5.33
2019-01-26T22:12:57.846Z,5.00
2019-01-26T22:15:25.017Z,5.20
2019-01-26T22:17:52.175Z,5.03
2019-01-26T22:20:21.343Z,5.10
2019-01-26T22:22:48.968Z,4.87
2019-01-26T22:25:16.648Z,4.60
2019-01-26T22:27:43.831Z,4.67
2019-01-26T22:30:18.919Z,4.57
2019-01-26T22:32:46.352Z,4.40
2019-01-26T22:35:13.628Z,4.23
2019-01-26T22:37:40.752Z,3.83
2019-01-26T22:40:11.613Z,4.07
2019-01-26T22:42:38.723Z,3.60
2019-01-26T22:45:06.689Z,3.63
2019-01-26T22:47:33.866Z,3.97
2019-01-26T22:50:01.046Z,3.27
2019-01-26T22:52:28.097Z,3.47
2019-01-26T22:54:55.193Z,2.70
2019-01-26T22:57:22.336Z,2.97
2019-01-26T22:59:49.420Z,2.87
2019-01-26T23:02:16.526Z,2.90
2019-01-26T23:05:37.781Z,2.60
2019-01-26T23:08:19.873Z,2.20
2019-01-26T23:11:32.455Z,2.37
2019-01-26T23:14:30.971Z,2.30
2019-01-26T23:17:29.037Z,2.10
2019-01-26T23:20:23.818Z,1.80
2019-01-26T23:22:59.844Z,1.80
2019-01-26T23:25:42.057Z,1.80
2019-01-26T23:28:38.932Z,2.00
2019-01-26T23:31:14.606Z,2.20
2019-01-26T23:33:41.973Z,1.90
2019-01-26T23:36:09.220Z,1.70
2019-01-26T23:38:36.293Z,1.60
2019-01-26T23:41:03.923Z,1.97
2019-01-26T23:43:30.969Z,1.80
2019-01-26T23:45:58.046Z,2.00
2019-01-26T23:48:25.122Z,1.63
2019-01-26T23:50:52.334Z,1.77
2019-01-26T23:53:19.514Z,1.63
2019-01-26T23:55:46.622Z,1.63
2019-01-26T23:58:13.843Z,1.63
